Aviation Digital Data Service (ADDS)

Output produced by TAFs form (0741 UTC 24 October 2014)
found at http://aviationweather.gov/adds/tafs/
 
KGJT 240520Z 2406/2506 08005KT P6SM BKN250 
     FM241000 13005KT P6SM BKN250 
     FM241900 29007KT P6SM FEW140 SCT250 
     FM250100 08005KT P6SM SCT250